createdAt,value
2016-06-16T00:00:15.678Z,22.8
2016-06-16T00:01:15.682Z,22.92
2016-06-16T00:02:15.700Z,22.92
2016-06-16T00:03:15.703Z,22.88
2016-06-16T00:04:15.705Z,22.9
2016-06-16T00:05:15.552Z,22.91
2016-06-16T00:06:15.869Z,22.86
2016-06-16T00:07:15.715Z,22.88
2016-06-16T00:08:15.578Z,22.91
2016-06-16T00:09:15.721Z,22.9
2016-06-16T00:10:16.396Z,22.9
2016-06-16T00:11:15.680Z,22.9
2016-06-16T00:12:15.762Z,22.94
2016-06-16T00:13:15.750Z,22.92
2016-06-16T00:14:15.768Z,22.88
2016-06-16T00:15:15.771Z,22.94
2016-06-16T00:16:15.821Z,22.92
2016-06-16T00:17:15.778Z,22.9
2016-06-16T00:18:15.780Z,22.91
2016-06-16T00:19:16.705Z,22.92
2016-06-16T00:20:15.802Z,22.85
2016-06-16T00:21:16.415Z,22.9
2016-06-16T00:22:15.808Z,22.88
2016-06-16T00:23:15.827Z,22.82
2016-06-16T00:24:15.814Z,22.82
2016-06-16T00:25:15.911Z,22.83
2016-06-16T00:26:15.680Z,22.86
2016-06-16T00:27:15.839Z,22.86
2016-06-16T00:28:15.842Z,22.82
2016-06-16T00:29:15.860Z,22.9
2016-06-16T00:30:16.552Z,22.86
2016-06-16T00:31:15.867Z,22.83
2016-06-16T00:32:16.370Z,22.92
2016-06-16T00:33:15.872Z,22.9
2016-06-16T00:34:15.876Z,22.86
2016-06-16T00:35:15.895Z,22.9
2016-06-16T00:36:15.898Z,22.86
2016-06-16T00:37:15.901Z,22.83
2016-06-16T00:38:15.904Z,22.9
2016-06-16T00:39:15.907Z,22.85
2016-06-16T00:40:15.754Z,22.85
2016-06-16T00:41:16.523Z,22.85
2016-06-16T00:42:15.932Z,22.83
2016-06-16T00:43:16.185Z,22.86
2016-06-16T00:44:15.939Z,22.86
2016-06-16T00:45:15.942Z,22.9
2016-06-16T00:46:15.959Z,22.86
2016-06-16T00:47:15.963Z,22.86
2016-06-16T00:48:15.982Z,22.9
2016-06-16T00:49:15.969Z,22.88
2016-06-16T00:50:15.972Z,22.83
2016-06-16T00:51:15.975Z,22.8
2016-06-16T00:52:17.103Z,22.82
2016-06-16T00:53:15.981Z,22.79
2016-06-16T00:54:16.000Z,22.82
2016-06-16T00:55:16.004Z,22.82
2016-06-16T00:56:16.412Z,22.86
2016-06-16T00:57:16.026Z,22.8
2016-06-16T00:58:15.857Z,22.76
2016-06-16T00:59:16.032Z,22.83
2016-06-16T01:00:16.034Z,22.83
2016-06-16T01:01:16.053Z,22.79
2016-06-16T01:02:16.056Z,22.83
2016-06-16T01:03:17.090Z,22.85
2016-06-16T01:04:15.906Z,22.82
2016-06-16T01:05:16.050Z,22.77
2016-06-16T01:06:15.912Z,22.8
2016-06-16T01:07:16.071Z,22.79
2016-06-16T01:08:16.075Z,22.8
2016-06-16T01:09:15.921Z,22.79
2016-06-16T01:10:15.941Z,22.77
2016-06-16T01:11:16.147Z,22.76
2016-06-16T01:12:17.118Z,22.76
2016-06-16T01:13:16.011Z,22.82
2016-06-16T01:14:16.734Z,22.8
2016-06-16T01:15:15.956Z,22.76
2016-06-16T01:16:16.115Z,22.79
2016-06-16T01:17:15.977Z,22.79
2016-06-16T01:18:16.152Z,22.77
2016-06-16T01:19:16.155Z,22.72
2016-06-16T01:20:16.143Z,22.73
2016-06-16T01:21:16.145Z,22.67
2016-06-16T01:22:16.164Z,22.68
2016-06-16T01:23:16.870Z,22.77
2016-06-16T01:24:16.170Z,22.75
2016-06-16T01:25:16.580Z,22.77
2016-06-16T01:26:16.693Z,22.72
2016-06-16T01:27:16.196Z,22.72
2016-06-16T01:28:16.198Z,22.77
2016-06-16T01:29:16.202Z,22.67
2016-06-16T01:30:16.205Z,22.8
2016-06-16T01:31:16.223Z,22.67
2016-06-16T01:32:16.273Z,22.77
2016-06-16T01:33:16.073Z,22.77
2016-06-16T01:34:17.232Z,22.64
2016-06-16T01:35:16.235Z,22.65
2016-06-16T01:36:16.301Z,22.72
2016-06-16T01:37:16.257Z,22.72
2016-06-16T01:38:17.214Z,22.67
2016-06-16T01:39:16.263Z,22.68
2016-06-16T01:40:16.266Z,22.76
2016-06-16T01:41:16.286Z,22.7
2016-06-16T01:42:16.273Z,22.64
2016-06-16T01:43:16.292Z,22.73
2016-06-16T01:44:16.138Z,22.67
2016-06-16T01:45:17.391Z,22.77
2016-06-16T01:46:16.144Z,22.67
2016-06-16T01:47:16.350Z,22.72
2016-06-16T01:48:16.322Z,22.73
2016-06-16T01:49:17.186Z,22.73
2016-06-16T01:50:16.328Z,22.73
2016-06-16T01:51:16.331Z,22.7
2016-06-16T01:52:16.351Z,22.73
2016-06-16T01:53:16.354Z,22.64
2016-06-16T01:54:16.356Z,22.68
2016-06-16T01:55:16.359Z,22.72
2016-06-16T01:56:17.269Z,22.76
2016-06-16T01:57:16.413Z,22.76
2016-06-16T01:58:16.369Z,22.76
2016-06-16T01:59:16.372Z,22.72
2016-06-16T02:00:16.969Z,22.73
2016-06-16T02:01:16.393Z,22.73
2016-06-16T02:02:16.397Z,22.67
2016-06-16T02:03:16.399Z,22.73
2016-06-16T02:04:16.419Z,22.64
2016-06-16T02:05:16.405Z,22.7
2016-06-16T02:06:16.425Z,22.68
2016-06-16T02:07:17.333Z,22.67
2016-06-16T02:08:16.431Z,22.75
2016-06-16T02:09:16.434Z,22.67
2016-06-16T02:10:16.437Z,22.7
2016-06-16T02:11:16.971Z,22.73
2016-06-16T02:12:16.459Z,22.73
2016-06-16T02:13:16.462Z,22.73
2016-06-16T02:14:16.465Z,22.67
2016-06-16T02:15:16.468Z,22.7
2016-06-16T02:16:16.472Z,22.73
2016-06-16T02:17:16.474Z,22.76
2016-06-16T02:18:17.086Z,22.65
2016-06-16T02:19:16.496Z,22.68
2016-06-16T02:20:16.343Z,22.7
2016-06-16T02:21:16.501Z,22.64
2016-06-16T02:22:17.615Z,22.64
2016-06-16T02:23:16.524Z,22.7
2016-06-16T02:24:16.527Z,22.64
2016-06-16T02:25:16.530Z,22.68
2016-06-16T02:26:17.158Z,22.75
2016-06-16T02:27:16.536Z,22.79
2016-06-16T02:28:16.540Z,22.7
2016-06-16T02:29:17.292Z,22.73
2016-06-16T02:30:16.545Z,22.68
2016-06-16T02:31:16.564Z,22.68
2016-06-16T02:32:16.568Z,22.76
2016-06-16T02:33:17.195Z,22.72
2016-06-16T02:34:16.636Z,22.68
2016-06-16T02:35:16.577Z,22.67
2016-06-16T02:36:16.595Z,22.68
2016-06-16T02:37:16.598Z,22.7
2016-06-16T02:38:16.601Z,22.67
2016-06-16T02:39:16.464Z,22.65
2016-06-16T02:40:17.623Z,22.67
2016-06-16T02:41:16.626Z,22.72
2016-06-16T02:42:16.629Z,22.76
2016-06-16T02:43:16.647Z,22.72
2016-06-16T02:44:17.276Z,22.75
2016-06-16T02:45:16.639Z,22.7
2016-06-16T02:46:16.641Z,22.73
2016-06-16T02:47:16.659Z,22.68
2016-06-16T02:48:16.679Z,22.73
2016-06-16T02:49:16.666Z,22.61
2016-06-16T02:50:16.668Z,22.7
2016-06-16T02:51:17.282Z,22.65
2016-06-16T02:52:16.691Z,22.62
2016-06-16T02:53:16.694Z,22.76
2016-06-16T02:54:16.697Z,22.58
2016-06-16T02:55:17.826Z,22.52
2016-06-16T02:56:16.703Z,22.58
2016-06-16T02:57:16.706Z,22.58
2016-06-16T02:58:16.726Z,22.55
2016-06-16T02:59:16.729Z,22.62
2016-06-16T03:00:16.716Z,22.58
2016-06-16T03:01:16.735Z,22.6
2016-06-16T03:02:17.253Z,22.62
2016-06-16T03:03:16.741Z,22.54
2016-06-16T03:04:16.759Z,22.57
2016-06-16T03:05:16.747Z,22.55
2016-06-16T03:06:17.875Z,22.6
2016-06-16T03:07:16.613Z,22.57
2016-06-16T03:08:16.771Z,22.57
2016-06-16T03:09:16.774Z,22.62
2016-06-16T03:10:16.793Z,22.54
2016-06-16T03:11:16.953Z,22.6
2016-06-16T03:12:17.487Z,22.61
2016-06-16T03:13:17.005Z,22.6
2016-06-16T03:14:16.821Z,22.62
2016-06-16T03:15:18.043Z,22.64
2016-06-16T03:16:16.828Z,22.55
2016-06-16T03:17:17.659Z,22.58
2016-06-16T03:18:16.849Z,22.61
2016-06-16T03:19:16.837Z,22.55
2016-06-16T03:20:16.840Z,22.61
2016-06-16T03:21:16.858Z,22.58
2016-06-16T03:22:16.705Z,22.61
2016-06-16T03:23:16.864Z,22.6
2016-06-16T03:24:16.915Z,22.57
2016-06-16T03:25:16.870Z,22.54
2016-06-16T03:26:18.045Z,22.58
2016-06-16T03:27:16.908Z,22.57
2016-06-16T03:28:17.693Z,22.58
2016-06-16T03:29:16.898Z,22.55
2016-06-16T03:30:16.917Z,22.61
2016-06-16T03:31:16.905Z,22.58
2016-06-16T03:32:16.923Z,22.57
2016-06-16T03:33:16.926Z,22.55
2016-06-16T03:34:16.929Z,22.49
2016-06-16T03:35:16.932Z,22.6
2016-06-16T03:36:16.952Z,22.58
2016-06-16T03:37:17.782Z,22.61
2016-06-16T03:38:16.957Z,22.58
2016-06-16T03:39:17.413Z,22.61
2016-06-16T03:40:16.979Z,22.58
2016-06-16T03:41:17.592Z,22.61
2016-06-16T03:42:16.813Z,22.52
2016-06-16T03:43:16.988Z,22.61
2016-06-16T03:44:16.992Z,22.61
2016-06-16T03:45:16.994Z,22.57
2016-06-16T03:46:16.998Z,22.58
2016-06-16T03:47:17.001Z,22.6
2016-06-16T03:48:18.097Z,22.6
2016-06-16T03:49:17.007Z,22.55
2016-06-16T03:50:17.073Z,22.54
2016-06-16T03:51:17.028Z,22.57
2016-06-16T03:52:17.031Z,22.49
2016-06-16T03:53:17.034Z,22.61
2016-06-16T03:54:17.054Z,22.58
2016-06-16T03:55:17.056Z,22.58
2016-06-16T03:56:17.279Z,22.61
2016-06-16T03:57:17.188Z,22.6
2016-06-16T03:58:17.066Z,22.47
2016-06-16T03:59:17.960Z,22.54
2016-06-16T04:00:17.088Z,22.54
2016-06-16T04:01:17.091Z,22.61
2016-06-16T04:02:17.094Z,22.54
2016-06-16T04:03:17.098Z,22.57
2016-06-16T04:04:17.100Z,22.52
2016-06-16T04:05:17.103Z,22.54
2016-06-16T04:06:17.121Z,22.61
2016-06-16T04:07:17.125Z,22.58
2016-06-16T04:08:17.127Z,22.62
2016-06-16T04:09:17.130Z,22.55
2016-06-16T04:10:17.837Z,22.58
2016-06-16T04:11:17.137Z,22.52
2016-06-16T04:12:17.328Z,22.58
2016-06-16T04:13:17.158Z,22.54
2016-06-16T04:14:17.177Z,22.54
2016-06-16T04:15:17.180Z,22.62
2016-06-16T04:16:17.187Z,22.64
2016-06-16T04:17:17.245Z,22.58
2016-06-16T04:18:17.272Z,22.61
2016-06-16T04:19:17.330Z,22.62
2016-06-16T04:20:17.373Z,22.61
2016-06-16T04:21:17.905Z,22.62
2016-06-16T04:22:17.329Z,22.62
2016-06-16T04:23:17.502Z,22.58
2016-06-16T04:24:17.317Z,22.61
2016-06-16T04:25:17.490Z,22.61
2016-06-16T04:26:17.503Z,22.61
2016-06-16T04:27:17.699Z,22.61
2016-06-16T04:28:17.519Z,22.61
2016-06-16T04:29:17.543Z,22.6
2016-06-16T04:30:17.551Z,22.72
2016-06-16T04:31:17.558Z,22.68
2016-06-16T04:32:18.313Z,22.7
2016-06-16T04:33:17.568Z,22.64
2016-06-16T04:34:17.573Z,22.68
2016-06-16T04:35:17.577Z,22.67
2016-06-16T04:36:17.582Z,22.68
2016-06-16T04:37:17.601Z,22.7
2016-06-16T04:38:17.605Z,22.65
2016-06-16T04:39:17.672Z,22.72
2016-06-16T04:40:17.629Z,22.73
2016-06-16T04:41:17.632Z,22.68
2016-06-16T04:42:17.636Z,22.68
2016-06-16T04:43:18.092Z,22.76
2016-06-16T04:44:17.643Z,22.77
2016-06-16T04:45:17.646Z,22.8
2016-06-16T04:46:17.665Z,22.8
2016-06-16T04:47:17.668Z,22.79
2016-06-16T04:48:17.672Z,22.85
2016-06-16T04:49:17.674Z,22.79
2016-06-16T04:50:17.693Z,22.83
2016-06-16T04:51:17.696Z,22.9
2016-06-16T04:52:17.699Z,22.91
2016-06-16T04:53:17.702Z,22.98
2016-06-16T04:54:18.002Z,23.04
2016-06-16T04:55:17.708Z,23.04
2016-06-16T04:56:17.711Z,23.02
2016-06-16T04:57:18.559Z,23.13
2016-06-16T04:58:17.733Z,23.13
2016-06-16T04:59:17.751Z,23.31
2016-06-16T05:00:17.754Z,23.19
2016-06-16T05:01:17.742Z,23.28
2016-06-16T05:02:17.760Z,23.35
2016-06-16T05:03:17.608Z,23.38
2016-06-16T05:04:17.767Z,23.39
2016-06-16T05:05:17.769Z,23.46
2016-06-16T05:06:17.789Z,23.39
2016-06-16T05:07:18.620Z,23.5
2016-06-16T05:08:17.811Z,23.53
2016-06-16T05:09:17.642Z,23.51
2016-06-16T05:10:17.817Z,23.53
2016-06-16T05:11:17.820Z,23.55
2016-06-16T05:12:17.839Z,23.6
2016-06-16T05:13:17.842Z,23.66
2016-06-16T05:14:17.845Z,23.66
2016-06-16T05:15:17.848Z,23.72
2016-06-16T05:16:18.632Z,23.61
2016-06-16T05:17:17.854Z,23.73
2016-06-16T05:18:18.951Z,23.7
2016-06-16T05:19:17.892Z,23.72
2016-06-16T05:20:17.895Z,23.73
2016-06-16T05:21:17.898Z,23.85
2016-06-16T05:22:17.901Z,23.88
2016-06-16T05:23:17.747Z,23.91
2016-06-16T05:24:17.922Z,23.93
2016-06-16T05:25:17.925Z,23.91
2016-06-16T05:26:17.929Z,23.93
2016-06-16T05:27:18.682Z,23.98
2016-06-16T05:28:17.951Z,24.02
2016-06-16T05:29:19.015Z,24.02
2016-06-16T05:30:17.971Z,24.05
2016-06-16T05:31:17.975Z,24.12
2016-06-16T05:32:17.822Z,24.08
2016-06-16T05:33:17.981Z,24.18
2016-06-16T05:34:17.844Z,24.12
2016-06-16T05:35:17.847Z,24.16
2016-06-16T05:36:18.006Z,24.25
2016-06-16T05:37:18.025Z,24.3
2016-06-16T05:38:18.621Z,24.32
2016-06-16T05:39:18.031Z,24.34
2016-06-16T05:40:19.190Z,24.42
2016-06-16T05:41:18.052Z,24.4
2016-06-16T05:42:18.306Z,24.52
2016-06-16T05:43:18.075Z,24.55
2016-06-16T05:44:18.094Z,24.55
2016-06-16T05:45:18.097Z,24.55
2016-06-16T05:46:18.100Z,24.61
2016-06-16T05:47:18.102Z,24.68
2016-06-16T05:48:18.121Z,24.62
2016-06-16T05:49:18.859Z,24.65
2016-06-16T05:50:18.143Z,24.76
2016-06-16T05:51:18.630Z,24.77
2016-06-16T05:52:18.164Z,24.8
2016-06-16T05:53:18.167Z,24.8
2016-06-16T05:54:18.171Z,24.76
2016-06-16T05:55:32.284Z,24.84
2016-06-16T05:56:18.193Z,24.95
2016-06-16T05:57:18.212Z,24.91
2016-06-16T05:58:18.215Z,24.99
2016-06-16T05:59:18.217Z,24.9
2016-06-16T06:00:19.001Z,24.95
2016-06-16T06:01:18.239Z,24.88
2016-06-16T06:02:18.945Z,24.87
2016-06-16T06:03:18.261Z,24.95
2016-06-16T06:04:18.264Z,24.96
2016-06-16T06:05:18.283Z,24.96
2016-06-16T06:06:18.286Z,25
2016-06-16T06:07:18.305Z,25.06
2016-06-16T06:08:18.324Z,25.1
2016-06-16T06:09:18.327Z,25.13
2016-06-16T06:10:18.345Z,25.13
2016-06-16T06:11:19.317Z,25.05
2016-06-16T06:12:18.366Z,25.2
2016-06-16T06:13:19.010Z,25.14
2016-06-16T06:14:18.373Z,25.2
2016-06-16T06:15:18.376Z,25.17
2016-06-16T06:16:18.379Z,25.21
2016-06-16T06:17:18.398Z,25.21
2016-06-16T06:18:18.401Z,25.18
2016-06-16T06:19:18.420Z,25.17
2016-06-16T06:20:18.438Z,25.27
2016-06-16T06:21:18.442Z,25.28
2016-06-16T06:22:19.163Z,25.21
2016-06-16T06:23:18.464Z,25.21
2016-06-16T06:24:19.684Z,25.32
2016-06-16T06:25:18.485Z,25.36
2016-06-16T06:26:18.488Z,25.39
2016-06-16T06:27:18.554Z,25.39
2016-06-16T06:28:18.510Z,25.33
2016-06-16T06:29:18.513Z,25.38
2016-06-16T06:30:18.531Z,25.45
2016-06-16T06:31:18.534Z,25.47
2016-06-16T06:32:18.553Z,25.51
2016-06-16T06:33:19.103Z,25.51
2016-06-16T06:34:18.576Z,25.52
2016-06-16T06:35:19.688Z,25.6
2016-06-16T06:36:18.597Z,25.69
2016-06-16T06:37:18.599Z,25.57
2016-06-16T06:38:18.618Z,25.67
2016-06-16T06:39:18.622Z,25.73
2016-06-16T06:40:18.641Z,25.72
2016-06-16T06:41:18.644Z,25.75
2016-06-16T06:42:18.678Z,25.79
2016-06-16T06:43:18.665Z,25.8
2016-06-16T06:44:19.184Z,25.82
2016-06-16T06:45:18.687Z,25.75
2016-06-16T06:46:19.690Z,25.88
2016-06-16T06:47:18.708Z,25.83
2016-06-16T06:48:18.712Z,25.87
2016-06-16T06:49:18.731Z,25.75
2016-06-16T06:50:18.750Z,25.79
2016-06-16T06:51:18.752Z,25.65
2016-06-16T06:52:18.756Z,25.64
2016-06-16T06:53:18.773Z,25.64
2016-06-16T06:54:18.777Z,25.55
2016-06-16T06:55:19.890Z,25.57
2016-06-16T06:56:18.799Z,25.55
2016-06-16T06:57:19.458Z,25.38
2016-06-16T06:58:18.836Z,25.21
2016-06-16T06:59:18.839Z,25.21
2016-06-16T07:00:18.842Z,25.32
2016-06-16T07:01:18.861Z,25.32
2016-06-16T07:02:18.865Z,25.42
2016-06-16T07:03:18.868Z,25.43
2016-06-16T07:04:18.885Z,25.45
2016-06-16T07:05:18.748Z,25.58
2016-06-16T07:06:19.752Z,25.58
2016-06-16T07:07:18.911Z,25.69
2016-06-16T07:08:19.383Z,25.72
2016-06-16T07:09:18.933Z,25.72
2016-06-16T07:10:18.936Z,25.7
2016-06-16T07:11:18.954Z,25.72
2016-06-16T07:12:19.035Z,25.72
2016-06-16T07:13:18.976Z,25.79
2016-06-16T07:14:18.979Z,25.77
2016-06-16T07:15:18.842Z,25.76
2016-06-16T07:16:19.002Z,25.77
2016-06-16T07:17:19.911Z,25.69
2016-06-16T07:18:19.022Z,25.75
2016-06-16T07:19:19.526Z,25.7
2016-06-16T07:20:19.045Z,25.47
2016-06-16T07:21:19.048Z,25.43
2016-06-16T07:22:19.082Z,25.43
2016-06-16T07:23:19.069Z,25.47
2016-06-16T07:24:19.105Z,25.43
2016-06-16T07:25:19.200Z,25.51
2016-06-16T07:26:19.094Z,25.4
2016-06-16T07:27:19.222Z,25.36
2016-06-16T07:28:19.866Z,25.24
2016-06-16T07:29:19.135Z,25.27
2016-06-16T07:30:19.481Z,25.32
2016-06-16T07:31:19.140Z,25.21
2016-06-16T07:32:38.706Z,25.18
2016-06-16T07:33:19.163Z,25.36
2016-06-16T07:34:19.010Z,25.43
2016-06-16T07:48:37.599Z,25.25
2016-06-16T07:48:41.083Z,25.05
2016-06-16T07:48:53.833Z,25.02
2016-06-16T07:49:53.696Z,25
2016-06-16T07:50:53.839Z,24.96
2016-06-16T07:51:53.905Z,24.99
2016-06-16T07:52:53.861Z,24.99
2016-06-16T07:53:53.864Z,24.93
2016-06-16T07:54:53.727Z,24.84
2016-06-16T07:55:53.730Z,24.78
2016-06-16T07:56:54.874Z,24.85
2016-06-16T07:57:53.907Z,24.83
2016-06-16T07:58:54.785Z,24.84
2016-06-16T07:59:53.930Z,24.78
2016-06-16T08:00:53.933Z,24.71
2016-06-16T08:01:53.936Z,24.71
2016-06-16T08:02:53.939Z,24.8
2016-06-16T08:03:53.957Z,24.76
2016-06-16T08:04:53.960Z,24.77
2016-06-16T08:05:53.963Z,24.76
2016-06-16T08:06:53.983Z,24.81
2016-06-16T08:07:54.955Z,24.71
2016-06-16T08:08:53.833Z,24.73
2016-06-16T08:09:53.992Z,24.81
2016-06-16T08:10:53.995Z,24.83
2016-06-16T08:11:54.028Z,24.83
2016-06-16T08:12:54.017Z,24.84
2016-06-16T08:13:54.020Z,24.84
2016-06-16T08:14:54.037Z,24.87
2016-06-16T08:15:53.885Z,24.83
2016-06-16T08:16:53.888Z,24.77
2016-06-16T08:17:53.891Z,24.77
2016-06-16T08:18:55.114Z,24.71
2016-06-16T08:19:54.069Z,24.76
2016-06-16T08:20:53.931Z,24.78
2016-06-16T08:21:54.092Z,24.71
2016-06-16T08:22:54.109Z,24.67
2016-06-16T08:23:54.098Z,24.73
2016-06-16T08:24:54.115Z,24.62
2016-06-16T08:25:54.118Z,24.71
2016-06-16T08:26:54.121Z,24.76
2016-06-16T08:27:54.141Z,24.68
2016-06-16T08:28:54.144Z,24.67
2016-06-16T08:29:55.209Z,24.67
2016-06-16T08:30:53.994Z,24.68
2016-06-16T08:31:54.153Z,24.68
2016-06-16T08:32:54.187Z,24.68
2016-06-16T08:33:54.018Z,24.65
2016-06-16T08:34:54.194Z,24.64
2016-06-16T08:35:54.197Z,24.77
2016-06-16T08:36:54.200Z,24.68
2016-06-16T08:37:54.202Z,24.67
2016-06-16T08:38:54.222Z,24.69
2016-06-16T08:39:54.225Z,24.68
2016-06-16T08:40:55.337Z,24.65
2016-06-16T08:41:54.278Z,24.67
2016-06-16T08:42:54.313Z,24.65
2016-06-16T08:43:54.253Z,24.65
2016-06-16T08:44:54.272Z,24.71
2016-06-16T08:45:54.259Z,24.64
2016-06-16T08:46:54.278Z,24.71
2016-06-16T08:47:54.280Z,24.62
2016-06-16T08:48:19.456Z,24.58
2016-06-16T08:48:32.190Z,24.64
2016-06-16T08:49:32.209Z,24.53
2016-06-16T08:50:32.228Z,24.6
2016-06-16T08:51:33.324Z,24.58
2016-06-16T08:52:32.218Z,24.55
2016-06-16T08:53:32.284Z,24.62
2016-06-16T08:54:32.256Z,24.52
2016-06-16T08:55:32.259Z,24.64
2016-06-16T08:56:32.261Z,24.65
2016-06-16T08:57:32.109Z,24.55
2016-06-16T08:58:32.267Z,24.52
2016-06-16T08:59:32.287Z,24.55
2016-06-16T09:00:32.290Z,24.55
2016-06-16T09:01:32.293Z,23.9
2016-06-16T09:02:33.436Z,23.63
2016-06-16T09:03:32.158Z,22.91
2016-06-16T09:04:32.505Z,22.73
2016-06-16T09:05:32.337Z,22.79
2016-06-16T09:06:32.323Z,22.77
2016-06-16T09:07:32.326Z,22.3
2016-06-16T09:08:32.329Z,22.88
2016-06-16T09:09:32.177Z,22.95
2016-06-16T09:10:32.336Z,23.2
2016-06-16T09:11:32.339Z,23.17
2016-06-16T09:12:32.341Z,23.23
2016-06-16T09:13:33.064Z,23.68
2016-06-16T09:14:32.348Z,23.68
2016-06-16T09:15:32.758Z,22.83
2016-06-16T09:16:32.354Z,22.83
2016-06-16T09:17:32.357Z,22.7
2016-06-16T09:18:32.360Z,22.2
2016-06-16T09:19:32.380Z,22.67
2016-06-16T09:20:32.226Z,22.98
2016-06-16T09:21:32.120Z,23.39
2016-06-16T09:22:32.388Z,23.42
2016-06-16T09:23:32.391Z,23.47
2016-06-16T09:24:33.020Z,23.4
2016-06-16T09:25:32.414Z,23.39
2016-06-16T09:26:32.745Z,23.32
2016-06-16T09:27:32.248Z,23.54
2016-06-16T09:28:32.407Z,23.58
2016-06-16T09:29:32.410Z,23.1
2016-06-16T09:30:32.429Z,23.42
2016-06-16T09:31:32.432Z,23.13
2016-06-16T09:32:32.466Z,23.32
2016-06-16T09:33:32.751Z,23.38
2016-06-16T09:34:32.441Z,23.5
2016-06-16T09:35:32.929Z,23.36
2016-06-16T09:36:32.291Z,23.04
2016-06-16T09:37:32.654Z,22.86
2016-06-16T09:38:32.453Z,23.19
2016-06-16T09:39:32.457Z,23.6
2016-06-16T09:40:32.303Z,23.63
2016-06-16T09:41:32.478Z,23.57
2016-06-16T09:42:32.481Z,23.57
2016-06-16T09:43:32.484Z,23.47
2016-06-16T09:44:32.503Z,23.42
2016-06-16T09:45:32.725Z,23.27
2016-06-16T09:46:33.041Z,22.62
2016-06-16T09:47:32.340Z,22.06
2016-06-16T09:48:32.765Z,21.8
2016-06-16T09:49:32.503Z,21.77
2016-06-16T09:50:32.505Z,21.88
2016-06-16T09:51:32.525Z,22.02
2016-06-16T09:52:32.512Z,22.06
2016-06-16T09:53:32.515Z,21.96
2016-06-16T09:54:32.517Z,21.88
2016-06-16T09:55:32.521Z,21.91
2016-06-16T09:56:32.524Z,21.82
2016-06-16T09:57:33.058Z,21.79
2016-06-16T09:58:32.530Z,21.98
2016-06-16T09:59:32.721Z,22.14
2016-06-16T10:00:32.521Z,22.12
2016-06-16T10:01:32.539Z,21.83
2016-06-16T10:02:32.387Z,21.68
2016-06-16T10:03:32.531Z,21.88
2016-06-16T10:04:32.393Z,21.8
2016-06-16T10:05:34.552Z,21.67
2016-06-16T10:06:32.383Z,22.2
2016-06-16T10:07:33.182Z,22.76
2016-06-16T10:08:33.249Z,22.85
2016-06-16T10:09:32.549Z,23.2
2016-06-16T10:10:33.052Z,23.35
2016-06-16T10:11:32.555Z,23.22
2016-06-16T10:12:32.558Z,23.38
2016-06-16T10:13:32.592Z,23.36
2016-06-16T10:14:32.565Z,23.51
2016-06-16T10:15:32.568Z,23.47
2016-06-16T10:16:32.570Z,23.51
2016-06-16T10:17:32.574Z,23.51
2016-06-16T10:18:32.419Z,23.57
2016-06-16T10:19:33.330Z,23.63
2016-06-16T10:20:32.426Z,23.72
2016-06-16T10:21:33.039Z,23.57
2016-06-16T10:22:32.589Z,23.63
2016-06-16T10:23:32.451Z,23.66
2016-06-16T10:24:32.610Z,23.8
2016-06-16T10:25:32.457Z,23.7
2016-06-16T10:26:32.616Z,23.69
2016-06-16T10:27:32.464Z,23.73
2016-06-16T10:28:32.513Z,23.7
2016-06-16T10:29:32.517Z,23.73
2016-06-16T10:30:33.395Z,23.8
2016-06-16T10:31:32.648Z,23.73
2016-06-16T10:32:33.135Z,23.65
2016-06-16T10:33:32.654Z,23.68
2016-06-16T10:34:32.500Z,23.61
2016-06-16T10:35:32.660Z,23.63
2016-06-16T10:36:32.678Z,23.58
2016-06-16T10:37:32.681Z,23.66
2016-06-16T10:38:32.528Z,23.61
2016-06-16T10:39:32.687Z,23.58
2016-06-16T10:40:32.535Z,23.69
2016-06-16T10:41:33.365Z,23.69
2016-06-16T10:42:32.712Z,23.75
2016-06-16T10:43:33.121Z,23.72
2016-06-16T10:44:32.563Z,23.68
2016-06-16T10:45:32.722Z,23.69
2016-06-16T10:46:32.569Z,23.69
2016-06-16T10:47:32.572Z,23.69
2016-06-16T10:48:32.747Z,23.63
2016-06-16T10:49:32.422Z,23.78
2016-06-16T10:50:32.753Z,23.7
2016-06-16T10:51:32.599Z,23.65
2016-06-16T10:52:33.306Z,23.69
2016-06-16T10:53:32.777Z,23.69
2016-06-16T10:54:33.031Z,23.72
2016-06-16T10:55:32.783Z,23.69
2016-06-16T10:56:32.631Z,23.66
2016-06-16T10:57:32.822Z,23.72
2016-06-16T10:58:32.793Z,23.7
2016-06-16T10:59:32.655Z,23.65
2016-06-16T11:00:32.659Z,23.61
2016-06-16T11:01:32.818Z,23.66
2016-06-16T11:02:32.821Z,23.73
2016-06-16T11:03:33.387Z,23.73
2016-06-16T11:04:32.827Z,23.78
2016-06-16T11:07:50.212Z,23.93
2016-06-16T11:09:33.265Z,23.88
2016-06-16T11:09:48.765Z,23.79
2016-06-16T11:10:49.080Z,23.84
2016-06-16T11:11:49.052Z,23.88
2016-06-16T11:13:39.590Z,23.91
2016-06-16T11:13:52.168Z,23.87
2016-06-16T11:14:52.343Z,24.02
2016-06-16T11:15:52.174Z,23.8
2016-06-16T11:16:52.333Z,23.9
2016-06-16T11:17:52.180Z,23.88
2016-06-16T11:18:53.417Z,23.8
2016-06-16T11:19:52.201Z,23.88
2016-06-16T11:20:52.221Z,23.9
2016-06-16T11:21:52.193Z,23.93
2016-06-16T11:22:52.196Z,23.97
2016-06-16T11:23:52.324Z,23.85
2016-06-16T11:24:52.264Z,23.95
2016-06-16T11:25:52.377Z,23.93
2016-06-16T11:26:52.379Z,23.95
2016-06-16T11:27:52.242Z,23.94
2016-06-16T11:28:52.401Z,23.97
2016-06-16T11:29:53.248Z,23.9
2016-06-16T11:30:52.423Z,23.95
2016-06-16T11:31:52.410Z,23.94
2016-06-16T11:32:52.429Z,24
2016-06-16T11:33:52.417Z,23.98
2016-06-16T11:34:52.482Z,24.03
2016-06-16T11:35:52.439Z,24.02
2016-06-16T11:36:52.286Z,24
2016-06-16T11:37:52.288Z,23.98
2016-06-16T11:38:52.556Z,23.9
2016-06-16T11:39:52.466Z,23.98
2016-06-16T11:40:52.313Z,23.95
2016-06-16T11:41:52.472Z,23.97
2016-06-16T11:42:52.475Z,23.94
2016-06-16T11:43:52.494Z,23.93
2016-06-16T11:44:52.497Z,23.87
2016-06-16T11:45:52.500Z,23.88
2016-06-16T11:46:52.504Z,23.93
2016-06-16T11:47:52.506Z,23.95
2016-06-16T11:48:52.525Z,24.03
2016-06-16T11:49:52.824Z,24
2016-06-16T11:50:52.531Z,24.18
2016-06-16T11:51:52.550Z,24.05
2016-06-16T11:52:52.553Z,24.09
2016-06-16T11:53:52.572Z,24.1
2016-06-16T11:54:52.559Z,24.06
2016-06-16T11:55:52.562Z,24.08
2016-06-16T11:56:52.581Z,24.03
2016-06-16T11:57:52.584Z,24.08
2016-06-16T11:58:52.432Z,24.05
2016-06-16T11:59:52.591Z,24.05
2016-06-16T12:00:52.890Z,24.1
2016-06-16T12:01:52.456Z,24.08
2016-06-16T12:02:52.459Z,24.08
2016-06-16T12:03:52.461Z,24.08
2016-06-16T12:04:52.481Z,24.08
2016-06-16T12:05:52.468Z,24.05
2016-06-16T12:06:52.627Z,24.08
2016-06-16T12:07:52.662Z,24.16
2016-06-16T12:08:52.680Z,24.1
2016-06-16T12:09:52.511Z,24.12
2016-06-16T12:10:52.671Z,24.08
2016-06-16T12:11:53.111Z,24.09
2016-06-16T12:12:52.536Z,24.2
2016-06-16T12:13:52.727Z,24.06
2016-06-16T12:14:52.684Z,24.13
2016-06-16T12:15:52.702Z,24.18
2016-06-16T12:16:52.704Z,24.09
2016-06-16T12:17:52.661Z,24.12
2016-06-16T12:18:52.727Z,24.06
2016-06-16T12:19:52.730Z,24.09
2016-06-16T12:20:52.749Z,24.09
2016-06-16T12:21:52.736Z,24.08
2016-06-16T12:22:53.161Z,24.12
2016-06-16T12:23:52.742Z,24.05
2016-06-16T12:24:52.808Z,24.03
2016-06-16T12:25:52.764Z,24.12
2016-06-16T12:26:52.782Z,24.09
2016-06-16T12:27:52.613Z,24.03
2016-06-16T12:28:52.680Z,24.15
2016-06-16T12:29:52.777Z,24.15
2016-06-16T12:30:52.639Z,24.18
2016-06-16T12:31:52.845Z,24.15
2016-06-16T12:32:52.879Z,24.12
2016-06-16T12:33:53.320Z,24.18
2016-06-16T12:34:52.823Z,24.16
2016-06-16T12:35:52.873Z,24.12
2016-06-16T12:36:52.844Z,24.15
2016-06-16T12:37:52.864Z,24.2
2016-06-16T12:38:52.695Z,24.13
2016-06-16T12:39:52.853Z,24.03
2016-06-16T12:40:52.857Z,24.12
2016-06-16T12:41:52.719Z,24.09
2016-06-16T12:42:52.894Z,24.1
2016-06-16T12:43:52.882Z,24.15
2016-06-16T12:44:53.540Z,24.1
2016-06-16T12:45:52.904Z,24.15
2016-06-16T12:46:53.125Z,24.1
2016-06-16T12:47:52.753Z,24.1
2016-06-16T12:48:52.928Z,24.16
2016-06-16T12:49:52.931Z,24.15
2016-06-16T12:50:52.934Z,24.18
2016-06-16T12:51:52.923Z,24.18
2016-06-16T12:52:52.629Z,24.09
2016-06-16T12:59:00.178Z,24.09
2016-06-16T13:00:00.165Z,24.1
2016-06-16T13:01:00.153Z,24.03
2016-06-16T13:02:00.172Z,23.98
2016-06-16T13:03:00.019Z,24.09
2016-06-16T13:04:00.178Z,24.1
2016-06-16T13:05:00.197Z,24.13
2016-06-16T13:06:00.199Z,24.2
2016-06-16T13:07:00.906Z,24.09
2016-06-16T13:08:00.206Z,24.15
2016-06-16T13:09:00.631Z,24.2
2016-06-16T13:10:00.212Z,24.13
2016-06-16T13:11:00.232Z,24.18
2016-06-16T13:12:00.094Z,24.13
2016-06-16T13:13:00.238Z,24.18
2016-06-16T13:14:00.100Z,24.13